createdAt,value
2023-02-11T00:01:34.331Z,5.40
2023-02-11T00:04:03.412Z,3.78
2023-02-11T00:06:33.161Z,4.13
2023-02-11T00:09:01.117Z,4.72
2023-02-11T00:11:32.509Z,3.78
2023-02-11T00:14:03.427Z,4.47
2023-02-11T00:16:32.495Z,8.45
2023-02-11T00:19:06.346Z,3.33
2023-02-11T00:21:34.978Z,5.25
2023-02-11T00:24:02.989Z,4.60
2023-02-11T00:29:05.962Z,4.40
2023-02-11T00:31:34.490Z,5.63
2023-02-11T00:34:03.038Z,4.05
2023-02-11T00:36:31.455Z,7.50
2023-02-11T00:39:00.299Z,4.18
2023-02-11T00:41:29.815Z,6.28
2023-02-11T00:44:01.303Z,10.93
2023-02-11T00:46:29.699Z,3.80
2023-02-11T00:48:58.162Z,3.80
2023-02-11T00:51:27.829Z,6.15
2023-02-11T00:53:55.618Z,7.32
2023-02-11T00:56:24.290Z,10.13
2023-02-11T00:58:52.100Z,4.20
2023-02-11T01:01:22.486Z,6.32
2023-02-11T01:03:50.883Z,4.25
2023-02-11T01:06:19.343Z,5.50
2023-02-11T01:08:47.101Z,3.92
2023-02-11T01:11:19.795Z,5.63
2023-02-11T01:13:49.107Z,4.47
2023-02-11T01:16:17.540Z,6.78
2023-02-11T01:18:46.744Z,5.97
2023-02-11T01:23:44.290Z,5.15
2023-02-11T01:26:13.081Z,6.82
2023-02-11T01:28:40.940Z,5.68
2023-02-11T01:31:10.698Z,8.30
2023-02-11T01:33:41.042Z,7.93
2023-02-11T01:36:10.179Z,5.10
2023-02-11T01:38:38.007Z,5.28
2023-02-11T01:41:09.917Z,8.25
2023-02-11T01:43:41.651Z,6.35
2023-02-11T01:46:33.754Z,4.80
2023-02-11T01:49:07.079Z,5.18
2023-02-11T01:51:41.748Z,4.43
2023-02-11T01:54:30.121Z,3.50
2023-02-11T01:57:18.639Z,3.45
2023-02-11T02:00:22.535Z,3.45
2023-02-11T02:03:24.107Z,4.35
2023-02-11T02:06:03.966Z,5.70
2023-02-11T02:08:34.559Z,3.08
2023-02-11T02:11:03.741Z,2.83
2023-02-11T02:13:34.883Z,5.25
2023-02-11T02:16:09.588Z,3.00
2023-02-11T02:19:19.208Z,4.88
2023-02-11T02:22:23.797Z,2.20
2023-02-11T02:25:01.161Z,5.05
2023-02-11T02:27:40.857Z,2.88
2023-02-11T02:30:17.440Z,3.25
2023-02-11T02:33:03.908Z,3.30
2023-02-11T02:35:50.696Z,3.85
2023-02-11T02:38:25.300Z,3.35
2023-02-11T02:41:01.554Z,3.08
2023-02-11T02:43:30.369Z,2.72
2023-02-11T02:46:11.382Z,3.00
2023-02-11T02:48:39.366Z,2.10
2023-02-11T02:51:25.495Z,3.72
2023-02-11T02:54:30.282Z,4.47
2023-02-11T02:57:15.978Z,5.28
2023-02-11T02:59:46.716Z,6.95
2023-02-11T03:02:26.649Z,4.30
2023-02-11T03:05:09.699Z,6.22
2023-02-11T03:08:02.814Z,3.70
2023-02-11T03:10:37.324Z,2.33
2023-02-11T03:13:07.327Z,5.07
2023-02-11T03:15:41.673Z,3.40
2023-02-11T03:18:14.182Z,3.00
2023-02-11T03:20:45.218Z,4.85
2023-02-11T03:23:19.041Z,2.85
2023-02-11T03:25:56.009Z,5.60
2023-02-11T03:28:36.721Z,2.00
2023-02-11T03:31:42.609Z,6.22
2023-02-11T03:34:23.980Z,3.50
2023-02-11T03:36:57.160Z,4.88
2023-02-11T03:39:30.984Z,3.42
2023-02-11T03:42:00.793Z,3.70
2023-02-11T03:44:39.969Z,3.08
2023-02-11T03:47:11.521Z,3.38
2023-02-11T03:49:40.870Z,3.95
2023-02-11T03:52:12.437Z,3.72
2023-02-11T03:54:43.560Z,2.92
2023-02-11T03:57:11.282Z,3.80
2023-02-11T03:59:59.155Z,2.88
2023-02-11T04:02:34.055Z,3.13
2023-02-11T04:05:01.762Z,3.05
2023-02-11T04:07:29.712Z,2.08
2023-02-11T04:09:57.431Z,2.75
2023-02-11T04:12:25.323Z,1.77
2023-02-11T04:14:53.020Z,2.13
2023-02-11T04:17:20.768Z,1.67
2023-02-11T04:19:48.360Z,0.88
2023-02-11T04:22:15.981Z,4.18
2023-02-11T04:24:44.145Z,1.65
2023-02-11T04:27:11.712Z,1.55
2023-02-11T04:29:39.312Z,2.38
2023-02-11T04:32:07.148Z,1.88
2023-02-11T04:34:34.821Z,1.65
2023-02-11T04:37:02.622Z,2.03
2023-02-11T04:39:30.706Z,1.90
2023-02-11T04:41:58.198Z,1.40
2023-02-11T04:44:26.364Z,4.15
2023-02-11T04:46:54.074Z,3.60
2023-02-11T04:49:21.845Z,2.05
2023-02-11T04:51:49.820Z,2.00
2023-02-11T04:56:45.503Z,2.17
2023-02-11T04:59:13.521Z,1.50
2023-02-11T05:04:09.183Z,2.63
2023-02-11T05:06:39.559Z,1.13
2023-02-11T05:09:07.692Z,1.60
2023-02-11T05:11:36.707Z,2.40
2023-02-11T05:14:04.292Z,3.22
2023-02-11T05:16:32.097Z,2.22
2023-02-11T05:19:00.027Z,4.55
2023-02-11T05:23:55.110Z,2.42
2023-02-11T05:26:22.915Z,2.58
2023-02-11T05:28:50.646Z,6.10
2023-02-11T05:31:18.566Z,3.50
2023-02-11T05:36:14.557Z,3.33
2023-02-11T05:38:43.386Z,2.60
2023-02-11T05:41:11.902Z,3.35
2023-02-11T05:43:39.866Z,3.42
2023-02-11T05:46:07.834Z,3.55
2023-02-11T05:48:35.579Z,3.92
2023-02-11T05:51:03.256Z,3.42
2023-02-11T05:53:30.969Z,3.45
2023-02-11T05:55:58.583Z,4.75
2023-02-11T05:58:26.264Z,5.40
2023-02-11T06:00:54.039Z,2.95
2023-02-11T06:03:21.651Z,3.15
2023-02-11T06:05:49.673Z,4.03
2023-02-11T06:08:17.611Z,3.58
2023-02-11T06:10:45.819Z,3.20
2023-02-11T06:15:55.333Z,4.82
2023-02-11T06:18:23.640Z,3.08
2023-02-11T06:20:51.105Z,3.45
2023-02-11T06:23:19.564Z,3.75
2023-02-11T06:25:47.357Z,3.17
2023-02-11T06:28:15.006Z,5.43
2023-02-11T06:30:42.996Z,3.45
2023-02-11T06:33:10.944Z,4.25
2023-02-11T06:35:39.944Z,6.15
2023-02-11T06:38:07.624Z,5.20
2023-02-11T06:40:35.623Z,5.47
2023-02-11T06:43:03.240Z,5.88
2023-02-11T06:45:31.080Z,5.35
2023-02-11T06:47:58.992Z,3.35
2023-02-11T06:50:26.876Z,4.93
2023-02-11T06:52:54.784Z,4.43
2023-02-11T06:55:22.420Z,4.55
2023-02-11T06:57:50.441Z,4.05
2023-02-11T07:02:45.972Z,5.15
2023-02-11T07:07:41.347Z,7.53
2023-02-11T07:10:09.250Z,5.18
2023-02-11T07:12:37.162Z,9.90
2023-02-11T07:15:05.573Z,6.43
2023-02-11T07:17:35.699Z,8.73
2023-02-11T07:20:04.259Z,4.82
2023-02-11T07:22:31.957Z,7.18
2023-02-11T07:24:59.551Z,4.93
2023-02-11T07:27:27.182Z,4.40
2023-02-11T07:29:54.738Z,5.22
2023-02-11T07:32:22.381Z,9.32
2023-02-11T07:34:50.080Z,5.10
2023-02-11T07:37:17.844Z,6.60
2023-02-11T07:39:45.468Z,6.47
2023-02-11T07:42:13.197Z,5.22
2023-02-11T07:44:41.216Z,7.70
2023-02-11T07:47:08.824Z,6.93
2023-02-11T07:49:36.458Z,6.22
2023-02-11T07:52:04.354Z,7.10
2023-02-11T07:54:31.984Z,6.03
2023-02-11T07:57:00.056Z,5.22
2023-02-11T07:59:27.696Z,9.20
2023-02-11T08:01:55.316Z,6.70
2023-02-11T08:04:23.042Z,4.60
2023-02-11T08:06:52.914Z,6.38
2023-02-11T08:09:20.867Z,5.55
2023-02-11T08:11:48.671Z,5.35
2023-02-11T08:14:16.306Z,5.97
2023-02-11T08:16:44.400Z,6.47
2023-02-11T08:19:14.885Z,4.72
2023-02-11T08:21:43.459Z,6.35
2023-02-11T08:24:11.742Z,6.63
2023-02-11T08:29:12.774Z,9.88
2023-02-11T08:31:42.477Z,4.15
2023-02-11T08:34:11.665Z,6.40
2023-02-11T08:36:40.808Z,6.28
2023-02-11T08:39:19.737Z,4.45
2023-02-11T08:41:50.562Z,4.57
2023-02-11T08:44:20.062Z,4.22
2023-02-11T08:46:48.369Z,5.85
2023-02-11T08:49:16.408Z,1.90
2023-02-11T08:54:12.530Z,3.22
2023-02-11T08:56:40.317Z,4.13
2023-02-11T08:59:09.526Z,2.45
2023-02-11T09:01:37.791Z,2.78
2023-02-11T09:06:33.121Z,3.63
2023-02-11T09:09:00.954Z,7.25
2023-02-11T09:11:34.922Z,3.65
2023-02-11T09:14:04.127Z,4.85
2023-02-11T09:16:35.088Z,4.38
2023-02-11T09:19:04.620Z,4.60
2023-02-11T09:21:32.285Z,2.38
2023-02-11T09:24:00.125Z,4.35
2023-02-11T09:26:31.236Z,4.68
2023-02-11T09:28:59.214Z,3.35
2023-02-11T09:34:01.593Z,4.40
2023-02-11T09:36:32.395Z,1.95
2023-02-11T09:39:01.816Z,6.60
2023-02-11T09:41:57.265Z,2.95
2023-02-11T09:44:31.381Z,2.95
2023-02-11T09:47:02.809Z,3.22
2023-02-11T09:49:47.562Z,3.30
2023-02-11T09:52:37.528Z,2.22
2023-02-11T09:55:26.748Z,2.10
2023-02-11T09:57:55.587Z,2.17
2023-02-11T10:00:38.058Z,2.55
2023-02-11T10:03:44.077Z,2.22
2023-02-11T10:06:11.733Z,1.77
2023-02-11T10:09:00.921Z,1.50
2023-02-11T10:11:39.904Z,2.22
2023-02-11T10:14:58.322Z,1.02
2023-02-11T10:17:45.202Z,1.45
2023-02-11T10:20:18.526Z,1.97
2023-02-11T10:22:50.428Z,2.53
2023-02-11T10:25:37.128Z,1.42
2023-02-11T10:28:21.139Z,1.17
2023-02-11T10:31:00.424Z,2.08
2023-02-11T10:33:53.459Z,3.58
2023-02-11T10:36:25.390Z,2.10
2023-02-11T10:38:53.005Z,2.50
2023-02-11T10:43:48.095Z,2.08
2023-02-11T10:48:51.660Z,1.67
2023-02-11T10:51:23.541Z,3.22
2023-02-11T10:54:19.649Z,3.13
2023-02-11T10:56:50.626Z,3.05
2023-02-11T10:59:37.595Z,1.92
2023-02-11T11:02:32.033Z,2.47
2023-02-11T11:05:04.318Z,1.40
2023-02-11T11:07:33.895Z,1.67
2023-02-11T11:10:08.548Z,1.45
2023-02-11T11:12:45.280Z,4.55
2023-02-11T11:15:28.683Z,3.70
2023-02-11T11:18:21.925Z,2.20
2023-02-11T11:21:16.368Z,2.45
2023-02-11T11:24:02.353Z,6.10
2023-02-11T11:26:48.729Z,2.10
2023-02-11T11:29:16.875Z,2.38
2023-02-11T11:32:20.937Z,2.55
2023-02-11T11:34:58.958Z,4.15
2023-02-11T11:37:29.494Z,2.40
2023-02-11T11:40:11.583Z,2.15
2023-02-11T11:42:40.226Z,1.55
2023-02-11T11:45:19.632Z,2.35
2023-02-11T11:48:24.091Z,2.63
2023-02-11T11:51:04.311Z,1.60
2023-02-11T11:53:44.154Z,3.25
2023-02-11T11:56:22.320Z,2.10
2023-02-11T12:01:42.326Z,2.70
2023-02-11T12:04:47.662Z,1.88
2023-02-11T12:07:40.756Z,4.75
2023-02-11T12:10:28.409Z,2.75
2023-02-11T12:13:30.734Z,2.92
2023-02-11T12:16:26.041Z,2.72
2023-02-11T12:19:32.016Z,3.08
2023-02-11T12:22:36.755Z,1.45
2023-02-11T12:25:23.095Z,3.42
2023-02-11T12:27:59.495Z,3.92
2023-02-11T12:30:53.967Z,3.03
2023-02-11T12:33:32.767Z,1.63
2023-02-11T12:36:11.838Z,2.53
2023-02-11T12:38:51.320Z,2.72
2023-02-11T12:41:52.682Z,2.00
2023-02-11T12:45:09.105Z,2.05
2023-02-11T12:48:09.655Z,3.97
2023-02-11T12:51:14.983Z,2.08
2023-02-11T12:54:01.131Z,1.13
2023-02-11T12:56:38.097Z,1.25
2023-02-11T12:59:17.326Z,0.70
2023-02-11T13:01:46.097Z,1.90
2023-02-11T13:04:14.050Z,1.65
2023-02-11T13:06:46.808Z,1.55
2023-02-11T13:09:29.392Z,1.15
2023-02-11T13:12:23.463Z,1.40
2023-02-11T13:14:54.201Z,1.52
2023-02-11T13:17:59.451Z,4.88
2023-02-11T13:20:33.001Z,2.67
2023-02-11T13:23:25.618Z,2.13
2023-02-11T13:26:23.517Z,1.63
2023-02-11T13:28:57.389Z,1.40
2023-02-11T13:31:27.546Z,5.80
2023-02-11T13:33:55.375Z,2.38
2023-02-11T13:36:28.427Z,2.95
2023-02-11T13:39:01.918Z,4.00
2023-02-11T13:41:36.489Z,2.65
2023-02-11T13:44:10.526Z,1.50
2023-02-11T13:46:58.317Z,1.60
2023-02-11T13:49:29.806Z,2.78
2023-02-11T13:51:58.069Z,4.75
2023-02-11T13:57:20.979Z,5.22
2023-02-11T13:59:51.451Z,2.58
2023-02-11T14:02:43.294Z,5.70
2023-02-11T14:05:41.852Z,4.82
2023-02-11T14:08:31.009Z,3.22
2023-02-11T14:11:08.709Z,3.03
2023-02-11T14:13:48.888Z,2.42
2023-02-11T14:16:37.002Z,1.95
2023-02-11T14:19:08.604Z,2.58
2023-02-11T14:21:40.626Z,3.05
2023-02-11T14:24:11.695Z,1.77
2023-02-11T14:26:47.567Z,1.10
2023-02-11T14:29:18.424Z,2.33
2023-02-11T14:32:07.644Z,1.75
2023-02-11T14:34:47.236Z,1.73
2023-02-11T14:37:20.691Z,1.98
2023-02-11T14:40:06.648Z,2.17
2023-02-11T14:42:38.384Z,2.45
2023-02-11T14:45:11.218Z,1.95
2023-02-11T14:47:50.763Z,3.53
2023-02-11T14:50:36.618Z,4.90
2023-02-11T14:53:06.347Z,4.60
2023-02-11T14:55:39.698Z,2.92
2023-02-11T14:58:18.844Z,1.83
2023-02-11T15:00:54.253Z,1.40
2023-02-11T15:03:36.819Z,4.28
2023-02-11T15:06:13.547Z,3.88
2023-02-11T15:08:45.919Z,3.30
2023-02-11T15:11:17.555Z,4.13
2023-02-11T15:13:48.148Z,4.47
2023-02-11T15:16:21.593Z,2.70
2023-02-11T15:18:58.136Z,2.38
2023-02-11T15:21:32.521Z,2.13
2023-02-11T15:24:02.601Z,4.50
2023-02-11T15:26:32.223Z,2.13
2023-02-11T15:29:00.534Z,2.60
2023-02-11T15:31:29.408Z,4.57
2023-02-11T15:34:07.575Z,4.18
2023-02-11T15:36:36.530Z,3.22
2023-02-11T15:39:32.749Z,4.63
2023-02-11T15:42:19.138Z,3.22
2023-02-11T15:44:54.249Z,4.63
2023-02-11T15:47:24.315Z,3.33
2023-02-11T15:49:52.169Z,4.60
2023-02-11T15:52:27.610Z,2.95
2023-02-11T15:54:59.633Z,3.40
2023-02-11T15:57:28.726Z,4.50
2023-02-11T15:59:56.968Z,5.90
2023-02-11T16:02:34.598Z,3.10
2023-02-11T16:05:08.580Z,3.15
2023-02-11T16:07:42.224Z,5.55
2023-02-11T16:10:18.983Z,2.00
2023-02-11T16:12:59.569Z,4.38
2023-02-11T16:15:52.521Z,4.65
2023-02-11T16:18:37.717Z,3.72
2023-02-11T16:21:15.002Z,3.22
2023-02-11T16:23:48.956Z,6.10
2023-02-11T16:26:33.600Z,3.80
2023-02-11T16:29:15.859Z,10.52
2023-02-11T16:31:46.826Z,5.60
2023-02-11T16:34:19.741Z,6.28
2023-02-11T16:36:48.110Z,3.88
2023-02-11T16:39:17.295Z,4.53
2023-02-11T16:41:45.026Z,6.43
2023-02-11T16:44:12.564Z,4.63
2023-02-11T16:46:40.212Z,3.90
2023-02-11T16:49:21.570Z,3.15
2023-02-11T16:51:51.652Z,6.30
2023-02-11T16:54:20.427Z,4.53
2023-02-11T16:56:47.963Z,4.28
2023-02-11T16:59:15.594Z,5.00
2023-02-11T17:01:44.873Z,4.25
2023-02-11T17:04:34.189Z,6.90
2023-02-11T17:07:01.964Z,6.53
2023-02-11T17:09:31.152Z,9.88
2023-02-11T17:11:59.009Z,5.47
2023-02-11T17:14:26.946Z,5.43
2023-02-11T17:16:54.474Z,4.60
2023-02-11T17:19:22.259Z,7.70
2023-02-11T17:21:51.767Z,5.20
2023-02-11T17:24:21.166Z,6.07
2023-02-11T17:26:50.083Z,5.70
2023-02-11T17:29:23.420Z,4.40
2023-02-11T17:31:52.457Z,7.85
2023-02-11T17:34:21.312Z,7.95
2023-02-11T17:36:48.963Z,8.45
2023-02-11T17:39:16.712Z,9.45
2023-02-11T17:41:44.272Z,9.18
2023-02-11T17:44:12.638Z,9.32
2023-02-11T17:46:40.108Z,10.85
2023-02-11T17:49:07.797Z,7.47
2023-02-11T17:51:37.949Z,6.40
2023-02-11T17:54:09.256Z,8.23
2023-02-11T17:56:37.898Z,6.22
2023-02-11T17:59:06.942Z,6.95
2023-02-11T18:01:36.765Z,6.75
2023-02-11T18:04:05.882Z,6.90
2023-02-11T18:06:34.055Z,5.90
2023-02-11T18:09:04.247Z,6.75
2023-02-11T18:11:34.061Z,6.93
2023-02-11T18:14:04.783Z,7.60
2023-02-11T18:16:39.869Z,5.55
2023-02-11T18:19:13.565Z,8.73
2023-02-11T18:21:41.700Z,6.15
2023-02-11T18:24:09.862Z,9.13
2023-02-11T18:26:42.890Z,7.60
2023-02-11T18:29:14.670Z,7.20
2023-02-11T18:31:42.586Z,9.18
2023-02-11T18:34:11.696Z,8.68
2023-02-11T18:36:39.459Z,7.05
2023-02-11T18:39:07.236Z,7.10
2023-02-11T18:41:35.343Z,7.93
2023-02-11T18:44:04.617Z,8.70
2023-02-11T18:46:32.358Z,6.43
2023-02-11T18:49:00.156Z,8.73
2023-02-11T18:51:28.101Z,9.50
2023-02-11T18:56:25.078Z,6.65
2023-02-11T18:58:52.694Z,7.55
2023-02-11T19:01:24.405Z,9.60
2023-02-11T19:03:52.535Z,7.13
2023-02-11T19:06:27.108Z,8.25
2023-02-11T19:08:59.529Z,8.55
2023-02-11T19:11:51.178Z,10.00
2023-02-11T19:14:25.833Z,11.55
2023-02-11T19:16:56.057Z,7.60
2023-02-11T19:19:26.880Z,9.77
2023-02-11T19:21:55.424Z,7.70
2023-02-11T19:24:23.882Z,8.65
2023-02-11T19:26:53.550Z,9.50
2023-02-11T19:29:21.363Z,6.35
2023-02-11T19:31:50.019Z,7.93
2023-02-11T19:34:19.971Z,8.95
2023-02-11T19:36:49.191Z,9.68
2023-02-11T19:39:17.031Z,12.75
2023-02-11T19:41:48.146Z,10.73
2023-02-11T19:44:17.117Z,8.77
2023-02-11T19:46:46.215Z,8.70
2023-02-11T19:49:23.520Z,9.13
2023-02-11T19:51:53.929Z,7.15
2023-02-11T19:54:24.571Z,8.73
2023-02-11T19:56:54.412Z,6.47
2023-02-11T19:59:22.641Z,7.90
2023-02-11T20:01:53.600Z,11.25
2023-02-11T20:04:25.463Z,4.85
2023-02-11T20:07:05.591Z,5.77
2023-02-11T20:09:49.023Z,8.10
2023-02-11T20:12:20.177Z,8.98
2023-02-11T20:15:00.864Z,8.73
2023-02-11T20:17:33.748Z,10.35
2023-02-11T20:20:05.492Z,9.63
2023-02-11T20:22:34.916Z,7.13
2023-02-11T20:25:08.171Z,7.60
2023-02-11T20:27:42.155Z,12.93
2023-02-11T20:30:16.542Z,13.68
2023-02-11T20:32:45.833Z,11.27
2023-02-11T20:35:14.317Z,11.27
2023-02-11T20:37:45.780Z,11.32
2023-02-11T20:40:16.807Z,10.93
2023-02-11T20:42:48.688Z,13.38
2023-02-11T20:45:19.601Z,10.20
2023-02-11T20:47:55.266Z,13.13
2023-02-11T20:50:23.296Z,11.95
2023-02-11T20:52:50.847Z,11.48
2023-02-11T20:55:18.500Z,10.85
2023-02-11T20:57:46.653Z,11.48
2023-02-11T21:00:14.605Z,12.73
2023-02-11T21:02:42.170Z,10.55
2023-02-11T21:05:11.573Z,11.80
2023-02-11T21:07:39.534Z,13.32
2023-02-11T21:10:07.692Z,8.95
2023-02-11T21:12:35.284Z,11.73
2023-02-11T21:15:05.900Z,8.43
2023-02-11T21:17:33.545Z,7.32
2023-02-11T21:20:01.472Z,7.95
2023-02-11T21:22:29.289Z,10.10
2023-02-11T21:24:56.941Z,9.90
2023-02-11T21:27:31.045Z,12.55
2023-02-11T21:30:01.379Z,10.40
2023-02-11T21:32:30.637Z,11.45
2023-02-11T21:35:01.864Z,11.35
2023-02-11T21:37:30.355Z,13.02
2023-02-11T21:40:01.160Z,10.35
2023-02-11T21:42:31.417Z,14.15
2023-02-11T21:44:59.252Z,13.10
2023-02-11T21:47:30.482Z,12.02
2023-02-11T21:49:58.496Z,14.40
2023-02-11T21:52:26.906Z,9.23
2023-02-11T21:54:54.967Z,13.02
2023-02-11T21:57:22.540Z,13.23
2023-02-11T21:59:50.368Z,12.07
2023-02-11T22:02:21.229Z,10.50
2023-02-11T22:04:49.343Z,9.77
2023-02-11T22:09:45.135Z,11.35
2023-02-11T22:12:13.169Z,10.27
2023-02-11T22:17:08.911Z,11.25
2023-02-11T22:19:37.104Z,8.77
2023-02-11T22:22:05.601Z,12.50
2023-02-11T22:24:35.182Z,12.45
2023-02-11T22:27:03.398Z,12.77
2023-02-11T22:29:31.314Z,9.95
2023-02-11T22:31:59.297Z,10.60
2023-02-11T22:34:26.852Z,14.15
2023-02-11T22:36:54.464Z,11.35
2023-02-11T22:39:22.677Z,10.57
2023-02-11T22:41:50.980Z,12.25
2023-02-11T22:46:48.389Z,12.88
2023-02-11T22:49:17.850Z,13.07
2023-02-11T22:51:45.972Z,13.02
2023-02-11T22:54:19.021Z,11.38
2023-02-11T22:56:53.431Z,12.25
2023-02-11T22:59:21.370Z,13.07
2023-02-11T23:01:50.331Z,13.07
2023-02-11T23:04:22.051Z,15.32
2023-02-11T23:06:52.666Z,12.52
2023-02-11T23:09:21.072Z,13.73
2023-02-11T23:11:49.432Z,18.80
2023-02-11T23:14:17.108Z,14.82
2023-02-11T23:16:44.963Z,16.40
2023-02-11T23:19:17.233Z,14.98
2023-02-11T23:21:45.638Z,15.50
2023-02-11T23:24:14.668Z,17.83
2023-02-11T23:26:43.285Z,13.70
2023-02-11T23:29:11.858Z,13.20
2023-02-11T23:31:43.460Z,16.27
2023-02-11T23:34:11.525Z,15.77
2023-02-11T23:36:39.428Z,16.48
2023-02-11T23:39:06.957Z,15.63
2023-02-11T23:41:35.452Z,17.20
2023-02-11T23:44:03.508Z,16.48
2023-02-11T23:46:31.707Z,15.93
2023-02-11T23:51:26.819Z,12.93
2023-02-11T23:53:56.194Z,15.15
2023-02-11T23:56:26.328Z,14.57
2023-02-11T23:58:57.127Z,14.73
